Meni       Kuća   X °C

Select another period ( hide this area )

Units Period Custom range Directly to
Metric English Both
Daily Weekly Monthly Yearly
use both date-selectors for a custom range
previous Day
With this date
Daily Summary for Thursday 29 February 2024
Time Temp. ( °F ) Dew pt. ( °F ) Wind ( mph ) From Gust ( mph ) Pressure ( in ) Humid.( % ) Rainrate ( in )
High63.7 48.2 16.2 SE ( 539/1273 ) 19.9 30.06 65 -
Average61.0 47.3 4.5 Calm #54/178 9.9 30.03 61 -
Low59.5 46.2 -   0.0 29.99 55 -
Daily Tabular details for Thursday 29 February 2024
Time Temp. ( °F ) Dew pt. ( °F ) Wind ( mph ) From Gust ( mph ) Pressure ( in ) Humid.( % ) Rainrate ( in )
00:01 60.1 46.2 3.1 ESE 6.8 30.05 60 -
00:06 60.3 46.8 3.7 SE 8.1 30.05 61 -
00:11 60.4 46.9 0.6 SSE 6.8 30.05 61 -
00:16 60.4 46.9 3.1 ESE 9.3 30.05 61 -
00:21 60.3 46.8   Calm 6.2 30.05 61 -
00:26 60.1 46.6   Calm 1.9 30.05 61 -
00:31 60.1 46.6 1.9 South 5.0 30.05 61 -
00:36 59.7 46.8   Calm 1.9 30.06 62 -
00:41 59.5 46.6   Calm 1.2 30.05 62 -
00:46 59.5 46.6   Calm 3.7 30.05 62 -
00:51 59.5 46.6   Calm   30.05 62 -
01:01 59.9 47.3 3.7 South 3.7 30.04 63 -
01:06 60.1 47.5 0.6 South 1.2 30.04 63 -
01:11 60.1 47.5 0.6 South 5.0 30.05 63 -
01:16 60.1 47.5 3.1 SSW 6.8 30.05 63 -
01:21 60.3 47.7   Calm 5.0 30.05 63 -
01:26 60.4 48.2 0.6 SW 8.1 30.05 64 -
01:31 60.4 48.2 0.6 SSW 3.7 30.05 64 -
01:36 60.4 48.2 0.6 South 6.2 30.05 64 -
01:41 60.4 48.2   Calm 1.9 30.05 64 -
01:46 60.3 48.0 3.7 SE 5.0 30.05 64 -
01:51 60.3 48.0   Calm 1.2 30.05 64 -
01:56 60.3 48.0   Calm 3.1 30.05 64 -
02:01 60.1 47.8 1.9 SSE 6.2 30.04 64 -
02:06 60.1 47.8   Calm 1.2 30.04 64 -
02:11 60.1 47.8   Calm 5.0 30.04 64 -
02:16 60.3 48.0   Calm 14.9 30.04 64 -
02:21 60.3 48.0 0.6 SW 8.1 30.04 64 -
02:26 60.3 48.0 0.6 SSE 9.3 30.05 64 -
02:31 60.3 48.0   Calm 8.1 30.05 64 -
02:36 60.3 48.0 0.6 South 9.3 30.05 64 -
02:41 60.3 48.0   Calm 9.3 30.04 64 -
02:46 60.3 48.0 1.9 SSE 13.0 30.04 64 -
02:51 60.3 48.0 3.7 SE 5.0 30.04 64 -
02:56 60.3 48.0 0.6 South 8.1 30.04 64 -
03:01 60.3 48.0   Calm 3.7 30.04 64 -
03:06 60.1 47.8   Calm 6.8 30.04 64 -
03:11 60.1 47.8 3.1 South 6.8 30.03 64 -
03:16 60.1 47.8 5.0 SE 5.0 30.03 64 -
03:21 60.1 47.8   Calm 3.7 30.03 64 -
03:26 59.9 47.7   Calm 3.7 30.04 64 -
03:31 59.9 47.7 1.9 SE 9.9 30.04 64 -
03:36 59.9 47.7 8.1 South 11.8 30.03 64 -
03:41 59.9 47.7   Calm 9.9 30.03 64 -
03:46 59.9 48.0   Calm 3.1 30.04 65 -
03:51 59.7 48.0   Calm 1.9 30.04 65 -
03:56 59.7 48.0   Calm 8.1 30.03 65 -
04:01 59.7 48.0   Calm 6.2 30.04 65 -
04:06 59.5 47.8   Calm 6.8 30.04 65 -
04:11 59.5 47.8   Calm 5.0 30.04 65 -
04:16 59.5 47.8   Calm 5.0 30.03 65 -
04:21 59.5 47.8   Calm 3.7 30.03 65 -
04:26 59.5 47.8   Calm 3.1 30.03 65 -
04:31 59.5 47.8   Calm 6.8 30.03 65 -
04:36 59.5 47.8   Calm 1.9 30.03 65 -
04:41 59.5 47.8 1.9 South 5.0 30.03 65 -
04:46 59.5 47.8   Calm 5.0 30.03 65 -
04:52 59.5 47.3 0.6 SSW 8.1 30.03 64 -
04:57 59.7 47.5 0.6 South 1.9 30.03 64 -
05:02 59.7 47.5 3.1 SSE 3.7 30.03 64 -
05:07 59.5 47.3   Calm 3.7 30.03 64 -
05:12 59.5 47.3   Calm 6.8 30.03 64 -
05:17 59.5 47.3   Calm 8.1 30.03 64 -
05:22 59.5 47.3 3.7 SSE 6.8 30.04 64 -
05:27 59.5 47.3 3.1 SSE 6.2 30.04 64 -
05:32 59.5 47.3   Calm 3.7 30.03 64 -
05:37 59.5 47.3   Calm 5.0 30.03 64 -
05:42 59.5 47.3 5.0 SE 6.2 30.03 64 -
05:47 59.5 47.3   Calm 3.1 30.03 64 -
05:52 59.5 47.3 5.0 South 6.8 30.03 64 -
05:57 59.5 47.3 8.1 SE 8.1 30.03 64 -
06:02 59.5 47.3   Calm 9.9 30.04 64 -
06:07 59.5 47.3 1.9 SSE 6.2 30.03 64 -
06:12 59.5 47.3 8.1 SSE 9.9 30.03 64 -
06:17 59.5 47.3   Calm 5.0 30.03 64 -
06:22 59.5 46.9 3.1 SSE 9.3 30.02 63 -
06:27 59.5 46.9   Calm 9.9 30.02 63 -
06:32 59.5 46.9 1.9 South 9.3 30.02 63 -
06:37 59.5 46.9 1.9 SSE 6.8 30.02 63 -
06:42 59.5 46.9   Calm 9.3 30.02 63 -
06:47 59.5 46.9   Calm 8.1 30.02 63 -
06:52 59.5 46.9 3.1 South 9.9 30.02 63 -
06:57 59.5 46.9 5.0 South 13.0 30.02 63 -
07:02 59.5 46.6 6.2 SSE 11.2 30.02 62 -
07:07 59.5 46.6   Calm 9.9 30.03 62 -
07:12 59.5 46.6   Calm 3.7 30.03 62 -
07:17 59.5 46.6 5.0 SSE 14.3 30.03 62 -
07:22 59.5 46.6 6.8 SSE 6.8 30.03 62 -
07:27 59.5 46.9   Calm 3.7 30.03 63 -
07:32 59.7 47.1   Calm 11.8 30.03 63 -
07:37 59.7 47.1 1.9 South 9.3 30.03 63 -
07:42 59.7 47.1 3.7 SE 11.8 30.03 63 -
07:47 59.9 47.3 5.0 SSE 8.1 30.03 63 -
07:52 60.1 47.5   Calm 6.2 30.03 63 -
07:57 60.1 47.5   Calm 14.3 30.03 63 -
08:02 60.1 47.5   Calm 11.8 30.03 63 -
08:07 60.3 47.7   Calm 1.9 30.03 63 -
08:12 60.3 47.1 0.6 South 9.3 30.03 62 -
08:22 60.4 47.3 6.2 South 9.9 30.03 62 -
08:27 60.6 47.5 0.6 SSE 6.2 30.03 62 -
08:32 60.6 47.1   Calm 6.2 30.03 61 -
08:37 60.4 46.9 11.2 South 14.3 30.03 61 -
08:42 60.6 47.1 3.7 SSE 9.9 30.04 61 -
08:47 60.6 47.1 0.6 SSE 11.2 30.03 61 -
08:52 60.6 47.1 1.9 SE 5.0 30.03 61 -
08:57 60.6 46.6   Calm 11.2 30.03 60 -
09:02 60.6 46.6 6.8 SSE 6.8 30.03 60 -
09:07 60.8 46.8 3.1 South 9.9 30.03 60 -
09:12 61.0 46.9   Calm 19.3 30.03 60 -
09:17 61.0 46.9 3.7 SSE 9.3 30.03 60 -
09:22 61.3 47.3 6.8 SE 11.2 30.03 60 -
09:27 61.3 47.3 6.2 South 9.9 30.03 60 -
09:32 61.3 46.9 8.1 SE 8.1 30.03 59 -
09:37 61.5 47.1 3.1 SSW 11.2 30.03 59 -
09:42 61.3 46.4 6.8 SE 14.3 30.03 58 -
09:47 61.5 46.6 9.9 SE 9.9 30.03 58 -
09:52 61.7 46.8 9.9 SE 11.8 30.04 58 -
09:57 62.1 47.1 14.9 SSE 14.9 30.04 58 -
10:02 62.2 46.8 8.7 SE 13.0 30.03 57 -
10:07 62.2 46.4 8.7 SSE 16.8 30.03 56 -
10:12 62.2 46.8 8.7 SE 11.2 30.03 57 -
10:17 62.1 46.2 8.1 SE 19.3 30.03 56 -
10:22 62.4 46.6 6.2 ESE 16.8 30.03 56 -
10:27 63.0 46.9 9.9 South 16.2 30.03 56 -
10:32 63.0 46.6 12.4 SE 14.9 30.03 55 -
10:37 62.8 46.9 11.2 SSE 13.0 30.03 56 -
10:42 63.0 46.9 3.7 SSE 11.8 30.03 56 -
10:47 62.8 46.4 8.1 SE 18.0 30.03 55 -
10:52 63.0 46.9 14.3 SE 16.2 30.03 56 -
10:57 63.1 46.8 8.7 SE 16.8 30.03 55 -
11:02 63.3 46.9 8.7 SSE 14.9 30.03 55 -
11:07 63.1 46.8 12.4 SE 16.8 30.02 55 -
11:12 63.1 46.8 9.9 East 14.9 30.02 55 -
11:17 63.3 46.9 8.1 SSE 16.8 30.02 55 -
11:22 63.3 46.9 8.1 SE 19.3 30.03 55 -
11:27 63.3 46.9 8.7 SSE 14.3 30.03 55 -
11:32 63.5 47.1 9.9 SE 16.2 30.03 55 -
11:37 63.7 47.3 8.7 SSE 14.3 30.02 55 -
11:42 63.7 47.3 14.9 ESE 16.2 30.02 55 -
11:47 63.7 47.3 8.7 ESE 16.2 30.02 55 -
11:52 63.3 46.9 13.0 SE 18.0 30.02 55 -
11:57 63.3 46.9 12.4 ESE 16.8 30.02 55 -
12:02 63.3 46.9 12.4 SE 14.9 30.01 55 -
12:07 63.3 46.9 12.4 SE 16.2 30.01 55 -
12:12 63.3 46.9 9.9 SE 16.8 30.01 55 -
12:17 63.5 47.1 8.1 ESE 16.2 30.01 55 -
12:22 63.7 47.3 12.4 SE 16.8 30.00 55 -
12:27 63.7 47.3 16.2 SE 16.8 30.01 55 -
12:32 63.7 47.3 5.0 SE 18.0 30.01 55 -
12:37 63.7 47.3 8.7 ESE 14.9 30.01 55 -
12:42 63.5 47.1 9.9 SSE 16.2 30.01 55 -
12:47 63.3 47.3 3.7 ESE 14.9 30.01 56 -
12:52 63.0 46.9 12.4 SE 14.3 30.00 56 -
12:57 62.8 47.3 6.8 South 13.0 30.01 57 -
13:02 62.6 47.1 12.4 SE 16.8 30.01 57 -
13:07 62.8 47.3 8.7 SSE 14.9 30.00 57 -
13:12 63.0 47.5 9.9 SE 16.8 30.00 57 -
13:17 63.0 47.5 12.4 SE 19.9 30.00 57 -
13:22 63.1 47.7 8.7 ESE 14.3 30.00 57 -
13:27 63.1 47.7 8.7 SE 13.0 29.99 57 -
13:32 63.0 47.5 14.3 ESE 19.9 29.99 57 -
13:37 62.8 47.3 6.8 SE 16.8 29.99 57 -
13:42 62.8 47.8 8.7 SSE 18.0 30.00 58 -
13:47 62.4 47.5 8.1 SSE 14.9 30.00 58 -
13:52 62.4 47.5 6.8 South 9.3 30.00 58 -
13:57 62.4 47.5 8.1 SE 14.3 29.99 58 -
14:02 62.4 47.5 6.2 SSE 11.8 29.99 58 -
14:07 62.2 47.3 8.1 SSE 16.2 29.99 58 -
14:12 62.2 47.3 6.8 South 19.3 29.99 58 -
14:17 62.2 47.7 5.0 SE 13.0 29.99 59 -
14:22 62.2 47.7 9.9 SSE 16.2 29.99 59 -
14:27 62.2 47.7 8.7 South 11.8 29.99 59 -
14:32 62.1 47.5 6.8 SSW 6.8 29.99 59 -
14:37 62.1 47.5 6.2 SSE 11.2 29.99 59 -
14:42 62.1 47.5 5.0 SSE 6.8 30.00 59 -
14:47 62.1 47.5 6.8 ESE 11.8 30.00 59 -
14:52 62.1 47.1 12.4 ESE 13.0 30.00 58 -
14:57 62.2 47.3 1.9 South 9.3 29.99 58 -

Download your copy of this data-set  from WeatherUnderground

Our weather-data as stored at Weather Underground